createdAt,value
2018-01-19T00:00:12.159Z,0
2018-01-19T00:01:20.981Z,0
2018-01-19T00:02:29.806Z,0
2018-01-19T00:03:38.629Z,0
2018-01-19T00:04:47.452Z,0
2018-01-19T00:05:56.278Z,0
2018-01-19T00:07:05.202Z,0
2018-01-19T00:08:14.028Z,0
2018-01-19T00:09:22.849Z,0
2018-01-19T00:10:31.670Z,0
2018-01-19T00:11:40.494Z,0
2018-01-19T00:12:49.469Z,0
2018-01-19T00:13:58.565Z,0
2018-01-19T00:15:07.389Z,0
2018-01-19T00:16:16.212Z,0
2018-01-19T00:17:25.317Z,0
2018-01-19T00:18:34.439Z,0
2018-01-19T00:19:43.269Z,0
2018-01-19T00:20:52.091Z,0
2018-01-19T00:22:00.916Z,0
2018-01-19T00:23:09.737Z,0
2018-01-19T00:24:18.667Z,0
2018-01-19T00:25:27.768Z,0
2018-01-19T00:26:36.592Z,0
2018-01-19T00:27:45.691Z,0
2018-01-19T00:28:54.515Z,0
2018-01-19T00:30:03.485Z,0
2018-01-19T00:31:12.309Z,0
2018-01-19T00:32:21.131Z,0
2018-01-19T00:33:29.954Z,0
2018-01-19T00:34:38.782Z,0
2018-01-19T00:35:47.757Z,0
2018-01-19T00:36:56.581Z,0
2018-01-19T00:38:05.407Z,0
2018-01-19T00:39:14.230Z,0
2018-01-19T00:40:23.052Z,0
2018-01-19T00:41:31.976Z,0
2018-01-19T00:42:40.800Z,0
2018-01-19T00:43:49.625Z,0
2018-01-19T00:44:58.448Z,0
2018-01-19T00:46:07.270Z,0
2018-01-19T00:47:16.096Z,0
2018-01-19T00:48:25.194Z,0
2018-01-19T00:49:34.019Z,0
2018-01-19T00:50:42.843Z,0
2018-01-19T00:51:51.668Z,0
2018-01-19T00:53:00.648Z,0
2018-01-19T00:54:09.465Z,0
2018-01-19T00:55:18.288Z,0
2018-01-19T00:56:27.110Z,0
2018-01-19T00:57:35.932Z,0
2018-01-19T00:58:44.756Z,0
2018-01-19T00:59:53.580Z,0
2018-01-19T01:01:02.404Z,0
2018-01-19T01:02:11.226Z,0
2018-01-19T01:03:20.047Z,0
2018-01-19T01:04:28.972Z,0
2018-01-19T01:05:37.796Z,0
2018-01-19T01:06:46.620Z,0
2018-01-19T01:07:55.442Z,0
2018-01-19T01:09:04.267Z,0
2018-01-19T01:10:13.245Z,0
2018-01-19T01:11:22.345Z,0
2018-01-19T01:12:31.444Z,0
2018-01-19T01:13:40.259Z,0
2018-01-19T01:14:49.081Z,0
2018-01-19T01:15:57.906Z,0
2018-01-19T01:17:06.729Z,0
2018-01-19T01:18:15.553Z,0
2018-01-19T01:19:24.376Z,0
2018-01-19T01:20:33.200Z,0
2018-01-19T01:21:42.224Z,0
2018-01-19T01:22:51.048Z,0
2018-01-19T01:23:59.872Z,0
2018-01-19T01:25:08.694Z,0
2018-01-19T01:26:17.521Z,0
2018-01-19T01:27:26.746Z,0
2018-01-19T01:28:35.570Z,0
2018-01-19T01:29:44.391Z,0
2018-01-19T01:30:53.216Z,0
2018-01-19T01:32:02.038Z,0
2018-01-19T01:33:10.864Z,0
2018-01-19T01:34:19.958Z,0
2018-01-19T01:35:28.780Z,0
2018-01-19T01:36:37.604Z,0
2018-01-19T01:37:46.427Z,0
2018-01-19T01:38:55.553Z,0
2018-01-19T01:40:04.655Z,0
2018-01-19T01:41:13.480Z,0
2018-01-19T01:42:22.302Z,0
2018-01-19T01:43:31.406Z,0
2018-01-19T01:44:40.232Z,0
2018-01-19T01:45:49.054Z,0
2018-01-19T01:46:57.882Z,0
2018-01-19T01:48:06.705Z,0
2018-01-19T01:49:15.527Z,0
2018-01-19T01:50:24.504Z,0
2018-01-19T01:51:33.326Z,0
2018-01-19T01:52:42.152Z,0
2018-01-19T01:53:50.974Z,0
2018-01-19T01:54:59.800Z,0
2018-01-19T01:56:08.722Z,0
2018-01-19T01:57:17.820Z,0
2018-01-19T01:58:26.645Z,0
2018-01-19T01:59:35.469Z,0
2018-01-19T02:00:44.292Z,0
2018-01-19T02:01:53.415Z,0
2018-01-19T02:03:02.238Z,0
2018-01-19T02:04:11.064Z,0
2018-01-19T02:05:19.887Z,0
2018-01-19T02:06:28.712Z,0
2018-01-19T02:07:37.585Z,0
2018-01-19T02:08:46.407Z,0
2018-01-19T02:09:55.232Z,0
2018-01-19T02:11:04.054Z,0
2018-01-19T02:12:12.879Z,0
2018-01-19T02:13:21.703Z,0
2018-01-19T02:14:30.527Z,0
2018-01-19T02:15:39.351Z,0
2018-01-19T02:16:48.174Z,0
2018-01-19T02:17:57.001Z,0
2018-01-19T02:19:06.224Z,0
2018-01-19T02:20:15.049Z,0
2018-01-19T02:21:23.873Z,0
2018-01-19T02:22:33.249Z,0
2018-01-19T02:23:42.071Z,0
2018-01-19T02:24:50.993Z,0
2018-01-19T02:25:59.819Z,0
2018-01-19T02:27:08.918Z,0
2018-01-19T02:28:17.744Z,0
2018-01-19T02:29:26.569Z,0
2018-01-19T02:30:35.494Z,0
2018-01-19T02:31:44.319Z,0
2018-01-19T02:32:53.167Z,0
2018-01-19T02:34:01.973Z,0
2018-01-19T02:35:10.796Z,0
2018-01-19T02:36:19.720Z,0
2018-01-19T02:37:28.551Z,0
2018-01-19T02:38:37.652Z,0
2018-01-19T02:39:46.475Z,0
2018-01-19T02:40:55.298Z,0
2018-01-19T02:42:04.372Z,0
2018-01-19T02:43:13.195Z,0
2018-01-19T02:44:22.019Z,0
2018-01-19T02:45:30.842Z,0
2018-01-19T02:46:39.668Z,0
2018-01-19T02:47:48.744Z,0
2018-01-19T02:48:57.566Z,0
2018-01-19T02:50:06.392Z,0
2018-01-19T02:51:15.217Z,0
2018-01-19T02:52:24.042Z,0
2018-01-19T02:53:32.967Z,0
2018-01-19T02:54:41.792Z,0
2018-01-19T02:55:50.617Z,0
2018-01-19T02:56:59.441Z,0
2018-01-19T02:58:08.265Z,0
2018-01-19T02:59:17.089Z,0
2018-01-19T03:00:25.913Z,0
2018-01-19T03:01:34.739Z,0
2018-01-19T03:02:43.563Z,0
2018-01-19T03:03:52.394Z,0
2018-01-19T03:05:01.215Z,0
2018-01-19T03:06:10.039Z,0
2018-01-19T03:07:18.861Z,0
2018-01-19T03:08:27.687Z,0
2018-01-19T03:09:36.513Z,0
2018-01-19T03:10:45.339Z,0
2018-01-19T03:11:54.161Z,0
2018-01-19T03:13:02.988Z,0
2018-01-19T03:14:12.085Z,0
2018-01-19T03:15:20.910Z,0
2018-01-19T03:16:30.037Z,0
2018-01-19T03:17:39.135Z,0
2018-01-19T03:18:47.960Z,0
2018-01-19T03:19:57.057Z,0
2018-01-19T03:21:05.883Z,0
2018-01-19T03:22:15.006Z,0
2018-01-19T03:23:23.832Z,0
2018-01-19T03:24:32.656Z,0
2018-01-19T03:25:41.481Z,0
2018-01-19T03:26:50.305Z,0
2018-01-19T03:27:59.230Z,0
2018-01-19T03:29:08.330Z,0
2018-01-19T03:30:17.431Z,0
2018-01-19T03:31:26.257Z,0
2018-01-19T03:32:35.080Z,0
2018-01-19T03:33:44.205Z,0
2018-01-19T03:34:53.028Z,0
2018-01-19T03:36:01.854Z,0
2018-01-19T03:37:10.680Z,0
2018-01-19T03:38:19.504Z,0
2018-01-19T03:39:28.628Z,0
2018-01-19T03:40:37.454Z,0
2018-01-19T03:41:46.276Z,0
2018-01-19T03:42:55.374Z,0
2018-01-19T03:44:04.198Z,0
2018-01-19T03:45:13.320Z,0
2018-01-19T03:46:22.163Z,0
2018-01-19T03:47:30.968Z,0
2018-01-19T03:48:39.794Z,0
2018-01-19T03:49:48.618Z,0
2018-01-19T03:50:57.844Z,0
2018-01-19T03:52:06.667Z,0
2018-01-19T03:53:15.491Z,0
2018-01-19T03:54:24.318Z,0
2018-01-19T03:55:33.142Z,0
2018-01-19T03:56:42.216Z,0
2018-01-19T03:57:51.038Z,0
2018-01-19T03:58:59.860Z,0
2018-01-19T04:00:08.971Z,0
2018-01-19T04:01:17.792Z,0
2018-01-19T04:02:26.918Z,0
2018-01-19T04:03:35.744Z,0
2018-01-19T04:04:44.565Z,0
2018-01-19T04:05:53.389Z,0
2018-01-19T04:07:02.211Z,0
2018-01-19T04:08:11.137Z,0
2018-01-19T04:09:19.959Z,0
2018-01-19T04:10:28.784Z,0
2018-01-19T04:11:37.607Z,0
2018-01-19T04:12:46.430Z,0
2018-01-19T04:13:55.530Z,0
2018-01-19T04:15:04.353Z,0
2018-01-19T04:16:13.177Z,0
2018-01-19T04:17:22.000Z,0
2018-01-19T04:18:30.827Z,0
2018-01-19T04:19:39.649Z,0
2018-01-19T04:20:48.475Z,0
2018-01-19T04:21:57.300Z,0
2018-01-19T04:23:06.123Z,0
2018-01-19T04:24:14.946Z,0
2018-01-19T04:25:24.169Z,0
2018-01-19T04:26:32.992Z,0
2018-01-19T04:27:41.817Z,0
2018-01-19T04:28:50.640Z,0
2018-01-19T04:29:59.462Z,0
2018-01-19T04:31:08.385Z,0
2018-01-19T04:32:17.210Z,0
2018-01-19T04:33:26.035Z,0
2018-01-19T04:34:35.143Z,0
2018-01-19T04:35:43.965Z,0
2018-01-19T04:36:52.841Z,0
2018-01-19T04:38:01.665Z,0
2018-01-19T04:39:10.491Z,0
2018-01-19T04:40:19.314Z,0
2018-01-19T04:41:28.417Z,0
2018-01-19T04:42:37.239Z,0
2018-01-19T04:43:46.338Z,0
2018-01-19T04:44:55.163Z,0
2018-01-19T04:46:03.988Z,0
2018-01-19T04:47:12.810Z,0
2018-01-19T04:48:21.935Z,0
2018-01-19T04:49:30.761Z,0
2018-01-19T04:50:39.586Z,0
2018-01-19T04:51:48.410Z,0
2018-01-19T04:52:57.231Z,0
2018-01-19T04:54:06.206Z,0
2018-01-19T04:55:15.303Z,0
2018-01-19T04:56:24.126Z,0
2018-01-19T04:57:32.951Z,0
2018-01-19T04:58:41.776Z,0
2018-01-19T04:59:50.600Z,0
2018-01-19T05:00:59.424Z,0
2018-01-19T05:02:08.249Z,0
2018-01-19T05:03:17.345Z,0
2018-01-19T05:04:26.177Z,0
2018-01-19T05:05:35.002Z,0
2018-01-19T05:06:43.826Z,0
2018-01-19T05:07:52.652Z,0
2018-01-19T05:09:01.477Z,0
2018-01-19T05:10:10.575Z,0
2018-01-19T05:11:19.447Z,0
2018-01-19T05:12:28.272Z,0
2018-01-19T05:13:37.095Z,0
2018-01-19T05:14:45.917Z,0
2018-01-19T05:15:54.741Z,0
2018-01-19T05:17:03.665Z,0
2018-01-19T05:18:12.488Z,0
2018-01-19T05:19:21.313Z,0
2018-01-19T05:20:30.134Z,0
2018-01-19T05:21:38.959Z,0
2018-01-19T05:22:48.182Z,0
2018-01-19T05:23:57.008Z,0
2018-01-19T05:25:05.834Z,0
2018-01-19T05:26:14.655Z,0
2018-01-19T05:27:23.479Z,0
2018-01-19T05:28:32.403Z,0
2018-01-19T05:29:41.226Z,0
2018-01-19T05:30:50.055Z,0
2018-01-19T05:31:58.874Z,0
2018-01-19T05:33:07.970Z,0
2018-01-19T05:34:17.092Z,0
2018-01-19T05:35:25.915Z,0
2018-01-19T05:36:34.740Z,0
2018-01-19T05:37:43.663Z,0
2018-01-19T05:38:52.484Z,0
2018-01-19T05:40:01.609Z,0
2018-01-19T05:41:10.433Z,0
2018-01-19T05:42:19.259Z,0
2018-01-19T05:43:28.086Z,0
2018-01-19T05:44:36.909Z,0
2018-01-19T05:45:45.733Z,0
2018-01-19T05:46:54.557Z,0
2018-01-19T05:48:03.382Z,0
2018-01-19T05:49:12.206Z,0
2018-01-19T05:50:21.029Z,0
2018-01-19T05:51:29.953Z,0
2018-01-19T05:52:38.775Z,0
2018-01-19T05:53:48.148Z,0
2018-01-19T05:54:56.969Z,0
2018-01-19T05:56:05.796Z,0
2018-01-19T05:57:14.621Z,0
2018-01-19T05:58:23.451Z,0
2018-01-19T05:59:32.287Z,0
2018-01-19T06:00:41.116Z,0
2018-01-19T06:01:49.939Z,0
2018-01-19T06:02:58.810Z,0
2018-01-19T06:04:07.635Z,0
2018-01-19T06:05:16.461Z,0
2018-01-19T06:06:25.284Z,0
2018-01-19T06:07:34.107Z,0
2018-01-19T06:08:43.083Z,0
2018-01-19T06:09:52.178Z,0
2018-01-19T06:11:01.003Z,0
2018-01-19T06:12:09.827Z,0
2018-01-19T06:13:18.650Z,0
2018-01-19T06:14:27.573Z,0
2018-01-19T06:15:36.396Z,0
2018-01-19T06:16:45.220Z,0
2018-01-19T06:17:54.045Z,0
2018-01-19T06:19:02.872Z,0
2018-01-19T06:20:11.697Z,0
2018-01-19T06:21:20.519Z,0
2018-01-19T06:22:29.343Z,0
2018-01-19T06:23:38.165Z,0
2018-01-19T06:24:46.991Z,0
2018-01-19T06:25:55.915Z,0
2018-01-19T06:27:04.739Z,0
2018-01-19T06:28:13.562Z,0
2018-01-19T06:29:22.385Z,0
2018-01-19T06:30:31.485Z,0
2018-01-19T06:31:40.310Z,0
2018-01-19T06:32:49.132Z,0
2018-01-19T06:33:58.233Z,0
2018-01-19T06:35:07.057Z,0
2018-01-19T06:36:15.882Z,0
2018-01-19T06:37:24.807Z,0
2018-01-19T06:38:33.627Z,0
2018-01-19T06:39:42.458Z,0
2018-01-19T06:40:51.285Z,0
2018-01-19T06:42:00.112Z,0
2018-01-19T06:43:09.607Z,0
2018-01-19T06:44:18.431Z,0
2018-01-19T06:45:27.254Z,0
2018-01-19T06:46:36.076Z,0
2018-01-19T06:47:45.174Z,0
2018-01-19T06:48:54.400Z,0
2018-01-19T06:50:03.225Z,0
2018-01-19T06:51:12.048Z,0
2018-01-19T06:52:20.871Z,0
2018-01-19T06:53:29.695Z,0
2018-01-19T06:54:38.571Z,0
2018-01-19T06:55:47.394Z,0
2018-01-19T06:56:56.217Z,0
2018-01-19T06:58:05.043Z,0
2018-01-19T06:59:13.865Z,0
2018-01-19T07:00:22.836Z,0
2018-01-19T07:01:31.659Z,0
2018-01-19T07:02:40.482Z,0
2018-01-19T07:03:49.304Z,0
2018-01-19T07:04:58.125Z,0
2018-01-19T07:06:07.202Z,0
2018-01-19T07:07:16.033Z,0
2018-01-19T07:08:24.855Z,0
2018-01-19T07:09:33.678Z,0
2018-01-19T07:10:42.504Z,0
2018-01-19T07:11:51.375Z,0
2018-01-19T07:13:00.481Z,0
2018-01-19T07:14:09.850Z,0
2018-01-19T07:15:18.679Z,0
2018-01-19T07:16:27.780Z,0
2018-01-19T07:17:36.750Z,0
2018-01-19T07:18:45.574Z,0
2018-01-19T07:19:54.673Z,0
2018-01-19T07:21:03.493Z,0
2018-01-19T07:22:12.318Z,0
2018-01-19T07:23:21.192Z,0
2018-01-19T07:24:30.017Z,5
2018-01-19T07:25:38.838Z,5
2018-01-19T07:26:47.662Z,5
2018-01-19T07:27:56.487Z,5
2018-01-19T07:29:05.459Z,5
2018-01-19T07:30:14.283Z,5
2018-01-19T07:31:23.106Z,5
2018-01-19T07:32:31.931Z,5
2018-01-19T07:33:40.755Z,5
2018-01-19T07:34:49.634Z,10
2018-01-19T07:35:58.457Z,10
2018-01-19T07:37:07.602Z,10
2018-01-19T07:38:16.392Z,10
2018-01-19T07:39:25.217Z,10
2018-01-19T07:40:34.189Z,10
2018-01-19T07:41:43.013Z,10
2018-01-19T07:42:51.837Z,10
2018-01-19T07:44:00.661Z,15
2018-01-19T07:45:09.482Z,15
2018-01-19T07:46:18.707Z,15
2018-01-19T07:47:27.532Z,15
2018-01-19T07:48:36.634Z,15
2018-01-19T07:49:45.459Z,15
2018-01-19T07:50:54.283Z,20
2018-01-19T07:52:03.208Z,15
2018-01-19T07:53:12.030Z,20
2018-01-19T07:54:20.854Z,25
2018-01-19T07:55:29.678Z,30
2018-01-19T07:56:38.776Z,25
2018-01-19T07:57:47.600Z,25
2018-01-19T07:58:56.427Z,25
2018-01-19T08:00:05.252Z,25
2018-01-19T08:01:14.077Z,25
2018-01-19T08:02:22.901Z,25
2018-01-19T08:03:31.876Z,30
2018-01-19T08:04:40.703Z,30
2018-01-19T08:05:49.522Z,30
2018-01-19T08:06:58.347Z,30
2018-01-19T08:08:07.723Z,30
2018-01-19T08:09:16.546Z,30
2018-01-19T08:10:25.372Z,30
2018-01-19T08:11:34.195Z,35
2018-01-19T08:12:43.020Z,35
2018-01-19T08:13:51.844Z,35
2018-01-19T08:15:00.918Z,40
2018-01-19T08:16:09.741Z,40
2018-01-19T08:17:18.564Z,40
2018-01-19T08:18:27.385Z,40
2018-01-19T08:19:36.210Z,45
2018-01-19T08:20:45.086Z,45
2018-01-19T08:21:53.910Z,45
2018-01-19T08:23:02.734Z,45
2018-01-19T08:24:11.559Z,50
2018-01-19T08:25:20.385Z,55
2018-01-19T08:26:29.260Z,60
2018-01-19T08:27:38.085Z,65
2018-01-19T08:28:46.914Z,65
2018-01-19T08:29:56.008Z,75
2018-01-19T08:31:04.835Z,75
2018-01-19T08:32:13.658Z,75
2018-01-19T08:33:22.484Z,75
2018-01-19T08:34:31.308Z,80
2018-01-19T08:35:40.131Z,80
2018-01-19T08:36:49.228Z,90
2018-01-19T08:37:58.353Z,115
2018-01-19T08:39:07.180Z,115
2018-01-19T08:40:16.002Z,100
2018-01-19T08:41:24.831Z,90
2018-01-19T08:42:33.930Z,80
2018-01-19T08:43:42.804Z,75
2018-01-19T08:44:51.632Z,80
2018-01-19T08:46:00.457Z,80
2018-01-19T08:47:09.284Z,75
2018-01-19T08:48:18.107Z,65
2018-01-19T08:49:27.080Z,55
2018-01-19T08:50:35.908Z,55
2018-01-19T08:51:44.733Z,60
2018-01-19T08:52:53.558Z,90
2018-01-19T08:54:02.383Z,90
2018-01-19T08:55:11.732Z,105
2018-01-19T08:56:20.558Z,85
2018-01-19T08:57:29.385Z,80
2018-01-19T08:58:38.213Z,80
2018-01-19T08:59:47.037Z,80
2018-01-19T09:00:56.011Z,90
2018-01-19T09:02:04.838Z,90
2018-01-19T09:03:13.660Z,80
2018-01-19T09:04:22.487Z,80
2018-01-19T09:05:31.311Z,80
2018-01-19T09:06:40.538Z,90
2018-01-19T09:07:49.364Z,85
2018-01-19T09:08:58.190Z,90
2018-01-19T09:10:07.016Z,95
2018-01-19T09:11:15.840Z,110
2018-01-19T09:12:24.990Z,110
2018-01-19T09:13:33.814Z,105
2018-01-19T09:14:42.640Z,100
2018-01-19T09:15:51.466Z,110
2018-01-19T09:17:00.291Z,115
2018-01-19T09:18:09.271Z,110
2018-01-19T09:19:18.089Z,105
2018-01-19T09:20:26.916Z,95
2018-01-19T09:21:36.013Z,85
2018-01-19T09:22:44.841Z,90
2018-01-19T09:23:53.813Z,80
2018-01-19T09:25:02.638Z,95
2018-01-19T09:26:11.464Z,100
2018-01-19T09:27:20.290Z,100
2018-01-19T09:28:29.113Z,105
2018-01-19T09:29:38.088Z,90
2018-01-19T09:30:46.913Z,85
2018-01-19T09:31:56.016Z,80
2018-01-19T09:33:04.843Z,90
2018-01-19T09:34:13.668Z,100
2018-01-19T09:35:22.894Z,110
2018-01-19T09:36:31.722Z,125
2018-01-19T09:37:40.546Z,120
2018-01-19T09:38:49.369Z,145
2018-01-19T09:39:58.194Z,155
2018-01-19T09:41:07.021Z,165
2018-01-19T09:42:15.844Z,180
2018-01-19T09:43:24.672Z,175
2018-01-19T09:44:33.496Z,115
2018-01-19T09:45:42.323Z,95
2018-01-19T09:46:51.300Z,85
2018-01-19T09:48:00.126Z,85
2018-01-19T09:49:08.952Z,95
2018-01-19T09:50:18.060Z,90
2018-01-19T09:51:26.879Z,95
2018-01-19T09:52:35.805Z,100
2018-01-19T09:53:44.633Z,110
2018-01-19T09:54:53.458Z,130
2018-01-19T09:56:02.286Z,125
2018-01-19T09:57:11.110Z,125
2018-01-19T09:58:20.338Z,155
2018-01-19T09:59:29.163Z,140
2018-01-19T10:00:37.989Z,125
2018-01-19T10:01:46.815Z,105
2018-01-19T10:02:55.642Z,95
2018-01-19T10:04:04.566Z,95
2018-01-19T10:05:13.392Z,95
2018-01-19T10:06:22.219Z,80
2018-01-19T10:07:31.044Z,60
2018-01-19T10:08:40.152Z,50
2018-01-19T10:09:48.981Z,65
2018-01-19T10:10:58.079Z,70
2018-01-19T10:12:07.186Z,70
2018-01-19T10:13:16.015Z,80
2018-01-19T10:14:25.110Z,80
2018-01-19T10:15:33.984Z,80
2018-01-19T10:16:42.812Z,80
2018-01-19T10:17:51.911Z,85
2018-01-19T10:19:00.735Z,85
2018-01-19T10:20:09.561Z,90
2018-01-19T10:21:18.537Z,95
2018-01-19T10:22:27.362Z,90
2018-01-19T10:23:36.187Z,80
2018-01-19T10:24:45.015Z,75
2018-01-19T10:25:53.839Z,75
2018-01-19T10:27:02.664Z,65
2018-01-19T10:28:11.490Z,70
2018-01-19T10:29:20.316Z,75
2018-01-19T10:30:29.147Z,75
2018-01-19T10:31:37.973Z,90
2018-01-19T10:32:46.804Z,85
2018-01-19T10:33:55.628Z,95
2018-01-19T10:35:04.453Z,95
2018-01-19T10:36:13.279Z,85
2018-01-19T10:37:22.131Z,90
2018-01-19T10:38:30.934Z,90
2018-01-19T10:39:39.765Z,75
2018-01-19T10:40:48.591Z,80
2018-01-19T10:41:57.419Z,70
2018-01-19T10:43:06.619Z,60
2018-01-19T10:44:15.447Z,65
2018-01-19T10:45:24.282Z,70
2018-01-19T10:46:33.099Z,80
2018-01-19T10:47:41.926Z,90
2018-01-19T10:48:50.905Z,80
2018-01-19T10:49:59.729Z,80
2018-01-19T10:51:08.552Z,85
2018-01-19T10:52:17.379Z,90
2018-01-19T10:53:26.202Z,100
2018-01-19T10:54:35.080Z,110
2018-01-19T10:55:43.905Z,115
2018-01-19T10:56:52.730Z,135
2018-01-19T10:58:01.555Z,150
2018-01-19T10:59:10.381Z,140
2018-01-19T11:00:19.206Z,150
2018-01-19T11:01:28.311Z,155
2018-01-19T11:02:37.130Z,150
2018-01-19T11:03:45.960Z,145
2018-01-19T11:04:55.060Z,135
2018-01-19T11:06:03.890Z,125
2018-01-19T11:07:12.714Z,135
2018-01-19T11:08:21.540Z,145
2018-01-19T11:09:30.379Z,135
2018-01-19T11:10:39.192Z,130
2018-01-19T11:11:48.318Z,130
2018-01-19T11:12:57.147Z,150
2018-01-19T11:14:05.975Z,140
2018-01-19T11:15:14.803Z,135
2018-01-19T11:16:23.901Z,130
2018-01-19T11:17:33.163Z,110
2018-01-19T11:18:41.989Z,110
2018-01-19T11:19:50.817Z,115
2018-01-19T11:20:59.923Z,115
2018-01-19T11:22:08.750Z,125
2018-01-19T11:23:17.577Z,140
2018-01-19T11:24:26.404Z,145
2018-01-19T11:25:35.232Z,160
2018-01-19T11:26:44.107Z,175
2018-01-19T11:27:52.937Z,190
2018-01-19T11:29:01.910Z,205
2018-01-19T11:30:10.739Z,210
2018-01-19T11:31:19.568Z,260
2018-01-19T11:32:28.392Z,210
2018-01-19T11:33:37.219Z,220
2018-01-19T11:34:46.045Z,195
2018-01-19T11:35:54.872Z,195
2018-01-19T11:37:03.701Z,180
2018-01-19T11:38:12.526Z,185
2018-01-19T11:39:21.353Z,180
2018-01-19T11:40:30.231Z,175
2018-01-19T11:41:39.057Z,170
2018-01-19T11:42:47.885Z,170
2018-01-19T11:43:56.712Z,195
2018-01-19T11:45:05.540Z,250
2018-01-19T11:46:14.666Z,270
2018-01-19T11:47:23.493Z,215
2018-01-19T11:48:32.317Z,195
2018-01-19T11:49:41.145Z,205
2018-01-19T11:50:49.974Z,215
2018-01-19T11:51:59.050Z,205
2018-01-19T11:53:07.879Z,165
2018-01-19T11:54:16.979Z,190
2018-01-19T11:55:25.803Z,190
2018-01-19T11:56:34.633Z,180
2018-01-19T11:57:44.032Z,160
2018-01-19T11:58:52.861Z,155
2018-01-19T12:00:01.962Z,180
2018-01-19T12:01:10.789Z,210
2018-01-19T12:02:19.618Z,215
2018-01-19T12:03:28.546Z,180
2018-01-19T12:04:37.374Z,125
2018-01-19T12:05:46.252Z,115
2018-01-19T12:06:55.078Z,110
2018-01-19T12:08:03.905Z,130
2018-01-19T12:09:12.731Z,130
2018-01-19T12:10:21.555Z,140
2018-01-19T12:11:30.385Z,145
2018-01-19T12:12:39.209Z,135
2018-01-19T12:13:48.038Z,125
2018-01-19T12:14:56.965Z,125
2018-01-19T12:16:05.792Z,140
2018-01-19T12:17:14.619Z,115
2018-01-19T12:18:23.446Z,105
2018-01-19T12:19:32.276Z,125
2018-01-19T12:20:41.407Z,140
2018-01-19T12:21:50.240Z,140
2018-01-19T12:22:59.057Z,145
2018-01-19T12:24:07.883Z,160
2018-01-19T12:25:16.713Z,165
2018-01-19T12:26:25.925Z,195
2018-01-19T12:27:35.016Z,185
2018-01-19T12:28:43.857Z,200
2018-01-19T12:29:52.677Z,180
2018-01-19T12:31:01.505Z,195
2018-01-19T12:32:10.583Z,170
2018-01-19T12:33:19.410Z,175
2018-01-19T12:34:28.233Z,170
2018-01-19T12:35:37.107Z,170
2018-01-19T12:36:45.890Z,175
2018-01-19T12:37:54.867Z,165
2018-01-19T12:39:03.694Z,175
2018-01-19T12:40:12.802Z,235
2018-01-19T12:41:21.624Z,265
2018-01-19T12:42:30.452Z,295
2018-01-19T12:43:39.378Z,300
2018-01-19T12:44:48.205Z,295
2018-01-19T12:45:57.031Z,260
2018-01-19T12:47:05.858Z,230
2018-01-19T12:48:14.687Z,225
2018-01-19T12:49:23.764Z,220
2018-01-19T12:50:32.874Z,185
2018-01-19T12:51:41.703Z,190
2018-01-19T12:52:50.534Z,190
2018-01-19T12:53:59.359Z,180
2018-01-19T12:55:08.466Z,180
2018-01-19T12:56:17.295Z,200
2018-01-19T12:57:26.125Z,230
2018-01-19T12:58:34.954Z,250
2018-01-19T12:59:43.780Z,235
2018-01-19T13:00:52.608Z,250
2018-01-19T13:02:01.436Z,240
2018-01-19T13:03:10.268Z,255
2018-01-19T13:04:19.370Z,255
2018-01-19T13:05:28.193Z,230
2018-01-19T13:06:37.341Z,200
2018-01-19T13:07:46.169Z,210
2018-01-19T13:08:55.000Z,230
2018-01-19T13:10:03.827Z,190
2018-01-19T13:11:12.657Z,145
2018-01-19T13:12:21.789Z,145
2018-01-19T13:13:30.617Z,130
2018-01-19T13:14:39.769Z,140
2018-01-19T13:15:48.596Z,140
2018-01-19T13:16:57.704Z,155
2018-01-19T13:18:06.581Z,165
2018-01-19T13:19:15.405Z,175
2018-01-19T13:20:24.234Z,145
2018-01-19T13:21:33.061Z,160
2018-01-19T13:22:41.891Z,185
2018-01-19T13:23:50.868Z,185
2018-01-19T13:24:59.695Z,180
2018-01-19T13:26:08.523Z,185
2018-01-19T13:27:17.352Z,190
2018-01-19T13:28:26.462Z,215
2018-01-19T13:29:35.394Z,225
2018-01-19T13:30:44.496Z,200
2018-01-19T13:31:53.323Z,205
2018-01-19T13:33:02.152Z,200
2018-01-19T13:34:10.981Z,180
2018-01-19T13:35:19.811Z,130
2018-01-19T13:36:28.639Z,135
2018-01-19T13:37:37.468Z,150
2018-01-19T13:38:46.296Z,145
2018-01-19T13:39:55.128Z,165
2018-01-19T13:41:04.053Z,210
2018-01-19T13:42:12.881Z,225
2018-01-19T13:43:21.708Z,235
2018-01-19T13:44:30.539Z,225
2018-01-19T13:45:39.368Z,170
2018-01-19T13:46:48.496Z,125
2018-01-19T13:47:57.324Z,120
2018-01-19T13:49:06.155Z,125
2018-01-19T13:50:14.978Z,165
2018-01-19T13:51:23.805Z,195
2018-01-19T13:52:32.882Z,215
2018-01-19T13:53:41.711Z,230
2018-01-19T13:54:50.537Z,220
2018-01-19T13:55:59.366Z,220
2018-01-19T13:57:08.196Z,205
2018-01-19T13:58:17.026Z,195
2018-01-19T13:59:25.859Z,185
2018-01-19T14:00:34.683Z,170
2018-01-19T14:01:43.512Z,160
2018-01-19T14:02:52.349Z,155
2018-01-19T14:04:01.465Z,170
2018-01-19T14:05:10.295Z,170
2018-01-19T14:06:19.123Z,190
2018-01-19T14:07:27.951Z,185
2018-01-19T14:08:36.783Z,195
2018-01-19T14:09:45.616Z,190
2018-01-19T14:10:54.445Z,185
2018-01-19T14:12:03.272Z,180
2018-01-19T14:13:12.102Z,240
2018-01-19T14:14:20.930Z,260
2018-01-19T14:15:29.755Z,230
2018-01-19T14:16:38.583Z,210
2018-01-19T14:17:47.409Z,190
2018-01-19T14:18:56.510Z,175
2018-01-19T14:20:05.345Z,175
2018-01-19T14:21:14.167Z,170
2018-01-19T14:22:22.994Z,175
2018-01-19T14:23:32.119Z,165
2018-01-19T14:24:40.997Z,170
2018-01-19T14:25:49.829Z,190
2018-01-19T14:26:58.655Z,175
2018-01-19T14:28:07.482Z,195
2018-01-19T14:29:16.460Z,165
2018-01-19T14:30:25.285Z,140
2018-01-19T14:31:34.119Z,130
2018-01-19T14:32:42.942Z,150
2018-01-19T14:33:52.050Z,145
2018-01-19T14:35:01.277Z,140
2018-01-19T14:36:10.105Z,130
2018-01-19T14:37:18.932Z,125
2018-01-19T14:38:27.761Z,120
2018-01-19T14:39:36.859Z,115
2018-01-19T14:40:45.788Z,115
2018-01-19T14:41:54.615Z,110
2018-01-19T14:43:03.715Z,100
2018-01-19T14:44:12.544Z,95
2018-01-19T14:45:21.372Z,85
2018-01-19T14:46:30.345Z,75
2018-01-19T14:47:39.129Z,80
2018-01-19T14:48:47.960Z,75
2018-01-19T14:49:56.785Z,65
2018-01-19T14:51:05.613Z,60
2018-01-19T14:52:14.717Z,60
2018-01-19T14:53:23.559Z,55
2018-01-19T14:54:32.385Z,55
2018-01-19T14:55:41.213Z,50
2018-01-19T14:56:50.043Z,50
2018-01-19T14:57:59.218Z,50
2018-01-19T14:59:08.046Z,50
2018-01-19T15:00:16.873Z,45
2018-01-19T15:01:25.705Z,45
2018-01-19T15:02:34.530Z,45
2018-01-19T15:03:43.760Z,40
2018-01-19T15:04:52.585Z,35
2018-01-19T15:06:01.423Z,30
2018-01-19T15:07:10.253Z,25
2018-01-19T15:08:19.080Z,20
2018-01-19T15:09:28.010Z,15
2018-01-19T15:10:37.038Z,10
2018-01-19T15:11:45.873Z,10
2018-01-19T15:12:54.694Z,10
2018-01-19T15:14:03.524Z,10
2018-01-19T15:15:12.551Z,15
2018-01-19T15:16:21.377Z,25
2018-01-19T15:17:30.480Z,30
2018-01-19T15:18:40.378Z,35
2018-01-19T15:19:49.205Z,40
2018-01-19T15:20:58.333Z,35
2018-01-19T15:22:07.159Z,35
2018-01-19T15:23:15.988Z,35
2018-01-19T15:24:24.818Z,35
2018-01-19T15:25:33.652Z,30
2018-01-19T15:26:42.477Z,30
2018-01-19T15:27:51.305Z,25
2018-01-19T15:29:00.131Z,25
2018-01-19T15:30:08.957Z,20
2018-01-19T15:31:17.791Z,20
2018-01-19T15:32:27.013Z,20
2018-01-19T15:33:35.839Z,20
2018-01-19T15:34:44.665Z,20
2018-01-19T15:35:53.764Z,20
2018-01-19T15:37:02.591Z,15
2018-01-19T15:38:11.484Z,15
2018-01-19T15:39:20.310Z,10
2018-01-19T15:40:29.138Z,10
2018-01-19T15:41:37.970Z,10
2018-01-19T15:42:46.793Z,5
2018-01-19T15:43:55.671Z,5
2018-01-19T15:45:04.502Z,5
2018-01-19T15:46:13.337Z,5
2018-01-19T15:47:22.179Z,5
2018-01-19T15:48:30.998Z,5
2018-01-19T15:49:39.821Z,5
2018-01-19T15:50:48.651Z,5
2018-01-19T15:51:57.478Z,5
2018-01-19T15:53:06.305Z,0
2018-01-19T15:54:15.132Z,0
2018-01-19T15:55:23.957Z,0
2018-01-19T15:56:32.783Z,0
2018-01-19T15:57:41.606Z,0
2018-01-19T15:58:50.435Z,0
2018-01-19T15:59:59.262Z,0
2018-01-19T16:01:08.089Z,0
2018-01-19T16:02:16.918Z,0
2018-01-19T16:03:25.746Z,0
2018-01-19T16:04:34.848Z,0
2018-01-19T16:05:43.675Z,0
2018-01-19T16:06:52.502Z,0
2018-01-19T16:08:01.330Z,0
2018-01-19T16:09:10.157Z,0
2018-01-19T16:10:18.983Z,0
2018-01-19T16:11:27.810Z,0
2018-01-19T16:12:36.747Z,0
2018-01-19T16:13:45.573Z,0
2018-01-19T16:14:54.401Z,0
2018-01-19T16:16:03.226Z,0
2018-01-19T16:17:12.054Z,0
2018-01-19T16:18:20.878Z,0
2018-01-19T16:19:29.706Z,0
2018-01-19T16:20:38.532Z,0
2018-01-19T16:21:47.364Z,0
2018-01-19T16:22:56.192Z,0
2018-01-19T16:24:05.169Z,0
2018-01-19T16:25:13.995Z,0
2018-01-19T16:26:22.826Z,0
2018-01-19T16:27:31.647Z,0
2018-01-19T16:28:40.478Z,0
2018-01-19T16:29:49.300Z,0